Victoria Regional Airport
KVCT : now visible

Airfield :











YOU CAN JOIN US ON...

 
LOGIN :

Register | Disclaimer

   EN    FR    IT 

 









Legend :    VFR   Marginal VFR   IFR   Intensive IFR   Very Intensive IFR
Visi :
Ceiling :
>= 8 km
>= 3000ft
5 to 8 km
1000 to 3000 ft
1500m to 5 km
500 to 1000 ft
800 to 1500m
200 to 500 ft
< 800m
< 200 ft
Symbols :   Thunderstorms  Fog  Heavy snow  Heavy precipitations  Wind > 20 kt






- Airport Elevation : 115 ft
- IATA code : VCT


KVCT - Victoria Regional

CURRENT METAR :
  • 112051Z 04008KT 10SM CLR 16/05 A3041 RMK AO2 SLP295 T01560050 56034

EXPIRED METARs :
  • 111951Z COR 04008KT 10SM FEW060 14/05 A3042 RMK AO2 SLP302 T01440050
  • 111908Z 01009KT 10SM SCT025 13/05 A3045 RMK AO2 T01280050
  • 111901Z 03006KT 10SM BKN025 13/05 A3045 RMK AO2 T01280050
  • 111851Z VRB06KT 10SM SCT023 14/06 A3046 RMK AO2 SLP313 T01390056

TAF KVCT
Valid from the 11 at 18:00 until the 12 at 18:00 UTC


111727Z 1118/1218 03011KT P6SM OVC016
FM111900 03011KT P6SM SCT025
FM120800 VRB05KT P6SM SCT017 BKN035



MET'MAP, your aeronautical weather chart ! - Copyright ORBIFLY December 2007 - Disclaimer

ORBIFLY MET'MAP TEAM :

Programming & Development : Alexandra Zaïnal
Concept & original design : Baudouin d'Aumeries
Assistance for programming : Marc-Olivier Méhu
Technical & hardware support : Manuel Goepfert

Contact : metmap@orbifly.com




SOURCES & CREDITS :

   NOAA       Earth
Advisory